EDT,Max TemperatureF,Mean TemperatureF,Min TemperatureF,Max Dew PointF,MeanDew PointF,Min DewpointF,Max Humidity, Mean Humidity, Min Humidity, Max Sea Level PressureIn, Mean Sea Level PressureIn, Min Sea Level PressureIn, Max VisibilityMiles, Mean VisibilityMiles, Min VisibilityMiles, Max Wind SpeedMPH, Mean Wind SpeedMPH, Max Gust SpeedMPH,PrecipitationIn, CloudCover, Events, WindDirDegrees
2012-10-1,68,52,39,48,43,39,100,72,43,29.96,29.91,29.86,10,9,3,8,1,,0.00,5,,103
2012-10-2,68,60,52,52,49,46,93,71,50,29.92,29.87,29.83,10,10,10,12,4,20,0.06,6,Rain,56
2012-10-3,66,60,57,61,56,52,100,84,65,30.06,29.99,29.90,10,8,2,12,4,,0.03,8,Rain,185
2012-10-4,75,65,55,59,52,48,90,66,40,30.08,30.04,29.98,10,10,5,15,8,22,0.06,4,Rain,214
2012-10-5,61,53,45,59,48,39,96,81,55,30.06,30.01,29.95,10,9,2,18,10,26,0.22,7,Rain,253
2012-10-6,48,42,39,43,36,31,97,76,54,30.11,29.99,29.92,10,9,7,22,10,26,0.00,6,,262
2012-10-7,48,41,36,38,35,30,93,77,54,30.15,30.11,30.09,10,10,10,9,5,,0.00,8,Rain,270
2012-10-8,53,41,30,35,29,24,96,64,34,30.22,30.16,30.11,10,10,10,12,5,17,0.00,1,,205
2012-10-9,60,48,37,36,33,29,76,55,39,30.12,30.00,29.83,10,10,10,20,8,26,0.00,5,,187
2012-10-10,53,44,34,40,35,25,93,74,49,30.16,29.92,29.77,10,10,7,24,13,34,0.07,6,Rain,270
2012-10-11,61,46,32,40,32,27,86,62,31,30.18,30.11,30.00,10,10,10,18,7,31,0.00,4,Rain,253
2012-10-12,52,42,32,37,31,21,89,70,34,30.45,30.34,30.19,10,10,10,12,7,16,0.01,3,Rain,327
2012-10-13,60,44,30,59,42,28,100,90,76,30.39,30.12,29.88,10,7,2,14,4,20,0.52,6,Rain,170
2012-10-14,68,64,59,63,59,53,100,85,70,29.86,29.66,29.41,10,7,3,20,11,34,0.30,8,Rain,196
2012-10-15,53,50,44,54,43,35,94,82,68,29.93,29.74,29.47,10,9,2,24,18,34,0.04,8,Rain,283
2012-10-16,57,46,35,44,36,33,93,67,42,29.99,29.89,29.77,10,10,10,10,7,,0.00,5,,211
2012-10-17,73,61,50,55,47,43,93,66,38,29.75,29.66,29.56,10,10,4,21,10,34,0.33,6,Rain,167
2012-10-18,59,55,50,55,45,33,94,72,39,29.66,29.50,29.38,10,9,2,18,11,31,0.37,6,Rain,181
2012-10-19,55,49,44,45,42,35,100,80,53,29.65,29.59,29.54,10,9,6,16,6,26,0.11,7,Rain,160
2012-10-20,53,48,44,45,43,40,100,88,62,29.90,29.66,29.57,10,10,7,16,7,23,0.08,7,Rain,241
2012-10-21,61,50,39,46,40,38,100,77,46,30.10,30.04,29.91,10,8,3,10,4,,0.00,2,Fog,243
2012-10-22,69,54,39,55,47,38,97,77,54,30.10,30.05,29.97,10,9,5,9,2,,0.02,4,Rain,151
2012-10-23,66,60,57,61,58,55,100,90,81,30.02,29.95,29.90,10,7,2,9,5,,0.07,8,Rain,231
2012-10-24,75,67,59,60,58,57,100,81,54,30.03,29.99,29.95,10,7,2,12,4,,0.06,6,Rain,175
2012-10-25,75,65,55,57,53,50,96,66,43,29.98,29.91,29.83,10,10,8,17,8,29,0.00,2,,178
2012-10-26,69,56,41,54,41,33,93,76,56,30.25,30.10,29.82,10,10,3,25,13,31,0.06,8,Rain,319
2012-10-27,52,44,37,36,32,30,83,66,44,30.23,30.19,30.14,10,10,10,16,10,21,0.00,3,,2
2012-10-28,46,40,36,35,29,26,82,66,49,30.22,30.17,30.12,10,10,10,22,12,32,0.00,5,,1
2012-10-29,41,38,35,35,31,27,93,73,57,30.11,29.96,29.69,10,10,7,32,18,47,0.00,8,Rain-Snow,347
2012-10-30,41,37,33,40,36,33,100,96,89,29.68,29.48,29.42,10,4,2,30,23,46,0.06,8,Rain-Snow,337
2012-10-31,41,37,35,38,36,34,100,93,83,29.65,29.57,29.48,10,8,3,20,16,26,0.00,8,,307